createdAt,value
2022-10-10T00:01:33.882Z,4.43
2022-10-10T00:04:03.290Z,8.77
2022-10-10T00:06:33.342Z,5.03
2022-10-10T00:09:04.188Z,4.72
2022-10-10T00:11:32.531Z,4.35
2022-10-10T00:14:01.112Z,4.85
2022-10-10T00:16:29.608Z,4.35
2022-10-10T00:18:57.931Z,4.78
2022-10-10T00:21:26.240Z,6.40
2022-10-10T00:23:54.641Z,6.57
2022-10-10T00:26:24.339Z,4.32
2022-10-10T00:28:52.642Z,4.85
2022-10-10T00:31:21.013Z,4.25
2022-10-10T00:33:49.439Z,4.32
2022-10-10T00:36:20.603Z,4.10
2022-10-10T00:38:49.337Z,5.38
2022-10-10T00:41:17.682Z,4.53
2022-10-10T00:44:07.168Z,4.53
2022-10-10T00:46:35.838Z,4.95
2022-10-10T00:49:06.044Z,4.07
2022-10-10T00:51:35.158Z,4.03
2022-10-10T00:54:06.949Z,4.32
2022-10-10T00:56:41.247Z,4.72
2022-10-10T00:59:12.672Z,4.38
2022-10-10T01:01:41.696Z,4.20
2022-10-10T01:04:34.949Z,4.57
2022-10-10T01:07:07.017Z,4.72
2022-10-10T01:09:37.098Z,4.10
2022-10-10T01:12:16.941Z,4.30
2022-10-10T01:14:54.656Z,4.60
2022-10-10T01:17:31.327Z,4.32
2022-10-10T01:20:38.961Z,4.95
2022-10-10T01:23:25.213Z,4.15
2022-10-10T01:26:07.021Z,4.45
2022-10-10T01:28:42.834Z,4.13
2022-10-10T01:31:14.070Z,4.65
2022-10-10T01:33:51.620Z,5.38
2022-10-10T01:36:27.696Z,5.78
2022-10-10T01:39:03.908Z,5.57
2022-10-10T01:41:36.192Z,6.40
2022-10-10T01:44:05.971Z,6.47
2022-10-10T01:46:34.910Z,8.50
2022-10-10T01:49:03.934Z,6.68
2022-10-10T01:51:51.772Z,5.68
2022-10-10T01:54:33.108Z,5.20
2022-10-10T01:57:17.152Z,5.35
2022-10-10T01:59:58.411Z,7.63
2022-10-10T02:02:37.640Z,4.75
2022-10-10T02:05:10.858Z,4.97
2022-10-10T02:07:45.029Z,4.63
2022-10-10T02:10:15.770Z,4.55
2022-10-10T02:12:44.814Z,4.53
2022-10-10T02:15:18.475Z,4.82
2022-10-10T02:17:49.944Z,4.80
2022-10-10T02:20:21.299Z,4.00
2022-10-10T02:22:51.870Z,5.05
2022-10-10T02:25:25.036Z,5.13
2022-10-10T02:28:07.508Z,4.47
2022-10-10T02:30:40.479Z,4.43
2022-10-10T02:33:10.112Z,4.53
2022-10-10T02:35:42.425Z,6.13
2022-10-10T02:38:14.224Z,5.60
2022-10-10T02:40:44.333Z,4.50
2022-10-10T02:43:14.247Z,4.60
2022-10-10T02:45:44.651Z,5.15
2022-10-10T02:48:12.996Z,5.18
2022-10-10T02:50:41.402Z,4.38
2022-10-10T02:53:09.824Z,4.70
2022-10-10T02:55:38.137Z,5.00
2022-10-10T02:58:06.772Z,4.85
2022-10-10T03:00:35.153Z,4.85
2022-10-10T03:03:05.063Z,4.93
2022-10-10T03:05:33.480Z,5.10
2022-10-10T03:08:01.822Z,4.80
2022-10-10T03:10:30.251Z,5.38
2022-10-10T03:12:58.656Z,5.10
2022-10-10T03:15:27.017Z,4.95
2022-10-10T03:17:55.346Z,4.70
2022-10-10T03:20:25.122Z,4.45
2022-10-10T03:22:53.687Z,5.07
2022-10-10T03:25:22.105Z,4.93
2022-10-10T03:27:50.507Z,4.85
2022-10-10T03:30:18.913Z,4.85
2022-10-10T03:32:47.270Z,4.88
2022-10-10T03:35:15.551Z,5.15
2022-10-10T03:37:45.278Z,5.25
2022-10-10T03:40:13.502Z,4.45
2022-10-10T03:42:41.754Z,5.20
2022-10-10T03:45:10.838Z,4.25
2022-10-10T03:47:39.106Z,5.00
2022-10-10T03:50:08.523Z,5.43
2022-10-10T03:52:36.975Z,5.10
2022-10-10T03:55:07.755Z,5.13
2022-10-10T03:57:36.738Z,5.22
2022-10-10T04:00:06.050Z,6.70
2022-10-10T04:02:34.459Z,4.97
2022-10-10T04:05:03.718Z,4.88
2022-10-10T04:07:32.240Z,5.10
2022-10-10T04:10:00.587Z,4.57
2022-10-10T04:12:30.321Z,4.65
2022-10-10T04:14:58.591Z,5.35
2022-10-10T04:17:26.991Z,4.97
2022-10-10T04:19:55.399Z,5.18
2022-10-10T04:22:23.726Z,4.40
2022-10-10T04:24:52.102Z,4.40
2022-10-10T04:27:20.358Z,5.13
2022-10-10T04:29:50.064Z,4.70
2022-10-10T04:32:18.357Z,4.90
2022-10-10T04:34:46.680Z,4.70
2022-10-10T04:37:14.988Z,4.53
2022-10-10T04:39:43.321Z,4.85
2022-10-10T04:42:11.964Z,4.72
2022-10-10T04:44:40.276Z,4.88
2022-10-10T04:47:09.950Z,5.10
2022-10-10T04:49:38.252Z,5.03
2022-10-10T04:52:06.819Z,4.47
2022-10-10T04:54:35.186Z,4.40
2022-10-10T04:57:03.808Z,4.60
2022-10-10T04:59:32.210Z,5.40
2022-10-10T05:02:01.906Z,4.50
2022-10-10T05:04:31.985Z,4.88
2022-10-10T05:07:00.267Z,4.68
2022-10-10T05:09:28.579Z,4.50
2022-10-10T05:11:56.982Z,4.45
2022-10-10T05:14:25.275Z,5.18
2022-10-10T05:16:53.653Z,4.13
2022-10-10T05:19:22.013Z,4.22
2022-10-10T05:21:51.748Z,4.70
2022-10-10T05:24:20.175Z,4.35
2022-10-10T05:26:49.017Z,4.50
2022-10-10T05:29:17.374Z,5.60
2022-10-10T05:31:45.726Z,4.85
2022-10-10T05:34:15.440Z,5.40
2022-10-10T05:36:44.194Z,5.57
2022-10-10T05:39:13.934Z,6.50
2022-10-10T05:41:42.253Z,6.68
2022-10-10T05:44:10.859Z,5.10
2022-10-10T05:46:39.160Z,4.72
2022-10-10T05:49:07.513Z,5.60
2022-10-10T05:51:35.976Z,5.53
2022-10-10T05:54:05.255Z,5.40
2022-10-10T05:56:35.090Z,5.20
2022-10-10T05:59:03.486Z,4.88
2022-10-10T06:01:31.901Z,4.82
2022-10-10T06:04:00.295Z,5.35
2022-10-10T06:06:28.652Z,5.30
2022-10-10T06:08:57.130Z,4.95
2022-10-10T06:11:26.114Z,5.03
2022-10-10T06:13:55.923Z,6.00
2022-10-10T06:16:25.264Z,5.22
2022-10-10T06:18:53.932Z,7.90
2022-10-10T06:21:22.374Z,5.45
2022-10-10T06:23:50.941Z,5.00
2022-10-10T06:26:19.737Z,5.30
2022-10-10T06:28:51.084Z,5.38
2022-10-10T06:31:20.906Z,6.32
2022-10-10T06:33:49.343Z,5.38
2022-10-10T06:36:18.351Z,5.65
2022-10-10T06:38:47.269Z,5.60
2022-10-10T06:41:15.681Z,5.43
2022-10-10T06:43:44.049Z,4.90
2022-10-10T06:46:12.542Z,5.72
2022-10-10T06:48:42.220Z,5.00
2022-10-10T06:51:14.833Z,7.10
2022-10-10T06:53:43.760Z,5.55
2022-10-10T06:56:17.845Z,5.45
2022-10-10T06:58:46.308Z,5.60
2022-10-10T07:01:14.671Z,5.35
2022-10-10T07:03:44.407Z,5.82
2022-10-10T07:06:13.704Z,5.65
2022-10-10T07:08:42.773Z,5.32
2022-10-10T07:11:11.357Z,6.30
2022-10-10T07:13:39.926Z,5.68
2022-10-10T07:16:08.679Z,5.13
2022-10-10T07:18:37.793Z,6.03
2022-10-10T07:21:07.810Z,5.95
2022-10-10T07:23:37.051Z,5.30
2022-10-10T07:26:08.083Z,5.68
2022-10-10T07:28:36.555Z,5.85
2022-10-10T07:31:06.822Z,5.60
2022-10-10T07:33:36.972Z,5.20
2022-10-10T07:36:07.378Z,5.65
2022-10-10T07:38:36.572Z,5.82
2022-10-10T07:41:07.710Z,6.40
2022-10-10T07:43:37.329Z,5.55
2022-10-10T07:46:08.261Z,6.20
2022-10-10T07:48:40.177Z,6.30
2022-10-10T07:51:10.498Z,5.25
2022-10-10T07:53:38.828Z,6.50
2022-10-10T07:56:07.677Z,5.95
2022-10-10T07:58:37.382Z,5.68
2022-10-10T08:01:07.254Z,6.53
2022-10-10T08:03:35.780Z,5.45
2022-10-10T08:06:06.006Z,5.70
2022-10-10T08:08:42.749Z,5.95
2022-10-10T08:11:18.424Z,5.95
2022-10-10T08:13:47.066Z,5.85
2022-10-10T08:16:16.036Z,5.85
2022-10-10T08:18:44.374Z,5.60
2022-10-10T08:21:15.439Z,5.78
2022-10-10T08:23:45.674Z,6.28
2022-10-10T08:26:16.044Z,6.93
2022-10-10T08:28:45.463Z,9.90
2022-10-10T08:31:15.412Z,10.32
2022-10-10T08:33:45.951Z,8.50
2022-10-10T08:36:16.646Z,11.13
2022-10-10T08:38:47.329Z,8.82
2022-10-10T08:41:25.182Z,8.05
2022-10-10T08:43:59.005Z,7.95
2022-10-10T08:46:34.994Z,7.57
2022-10-10T08:49:14.491Z,7.82
2022-10-10T08:51:45.913Z,7.00
2022-10-10T08:54:18.729Z,6.50
2022-10-10T08:56:47.441Z,6.97
2022-10-10T08:59:21.224Z,6.03
2022-10-10T09:02:19.259Z,7.28
2022-10-10T09:04:39.926Z,6.90
2022-10-10T09:07:18.519Z,5.60
2022-10-10T09:09:56.226Z,5.50
2022-10-10T09:12:33.469Z,5.03
2022-10-10T09:15:12.992Z,5.50
2022-10-10T09:17:46.119Z,5.97
2022-10-10T09:20:28.014Z,5.03
2022-10-10T09:23:02.246Z,5.60
2022-10-10T09:25:35.650Z,8.10
2022-10-10T09:28:12.604Z,5.75
2022-10-10T09:30:49.894Z,5.90
2022-10-10T09:33:27.130Z,7.40
2022-10-10T09:35:57.593Z,9.00
2022-10-10T09:38:34.572Z,7.38
2022-10-10T09:41:12.342Z,6.63
2022-10-10T09:43:41.008Z,9.88
2022-10-10T09:46:09.437Z,7.32
2022-10-10T09:48:40.171Z,10.27
2022-10-10T09:51:13.510Z,6.50
2022-10-10T09:53:42.105Z,6.85
2022-10-10T09:56:18.128Z,6.18
2022-10-10T09:58:48.285Z,5.82
2022-10-10T10:01:19.915Z,6.63
2022-10-10T10:04:29.680Z,7.53
2022-10-10T10:07:07.377Z,7.60
2022-10-10T10:09:35.851Z,6.70
2022-10-10T10:12:07.497Z,8.43
2022-10-10T10:14:38.998Z,7.05
2022-10-10T10:17:09.684Z,8.82
2022-10-10T10:19:40.419Z,7.82
2022-10-10T10:22:31.847Z,6.97
2022-10-10T10:25:00.788Z,8.85
2022-10-10T10:27:30.769Z,6.53
2022-10-10T10:30:00.322Z,7.95
2022-10-10T10:32:46.358Z,6.47
2022-10-10T10:35:24.362Z,7.30
2022-10-10T10:38:08.522Z,11.80
2022-10-10T10:40:42.031Z,7.20
2022-10-10T10:43:40.501Z,7.18
2022-10-10T10:46:19.848Z,8.05
2022-10-10T10:48:56.250Z,6.82
2022-10-10T10:51:44.226Z,6.63
2022-10-10T10:54:29.998Z,6.72
2022-10-10T10:57:06.870Z,7.60
2022-10-10T11:00:26.036Z,6.75
2022-10-10T11:02:59.759Z,8.20
2022-10-10T11:05:41.667Z,6.57
2022-10-10T11:08:26.660Z,7.15
2022-10-10T11:11:08.499Z,7.32
2022-10-10T11:13:44.348Z,7.28
2022-10-10T11:16:43.946Z,6.70
2022-10-10T11:19:23.916Z,6.72
2022-10-10T11:21:59.218Z,7.68
2022-10-10T11:24:40.100Z,6.43
2022-10-10T11:27:15.420Z,8.18
2022-10-10T11:29:58.752Z,7.40
2022-10-10T11:32:33.220Z,9.73
2022-10-10T11:35:13.742Z,9.35
2022-10-10T11:37:47.461Z,8.98
2022-10-10T11:40:34.064Z,7.32
2022-10-10T11:43:05.948Z,7.20
2022-10-10T11:45:47.262Z,6.65
2022-10-10T11:48:27.373Z,7.32
2022-10-10T11:51:00.897Z,6.82
2022-10-10T11:53:35.202Z,7.43
2022-10-10T11:56:11.602Z,7.68
2022-10-10T11:58:42.701Z,7.50
2022-10-10T12:01:20.236Z,7.72
2022-10-10T12:03:52.532Z,5.85
2022-10-10T12:06:25.873Z,6.47
2022-10-10T12:09:00.943Z,6.70
2022-10-10T12:11:35.977Z,6.13
2022-10-10T12:14:08.454Z,6.38
2022-10-10T12:16:38.999Z,6.35
2022-10-10T12:19:16.777Z,6.32
2022-10-10T12:21:57.808Z,6.72
2022-10-10T12:24:27.054Z,6.38
2022-10-10T12:27:31.719Z,6.72
2022-10-10T12:30:24.908Z,6.50
2022-10-10T12:32:55.494Z,6.95
2022-10-10T12:35:37.627Z,5.75
2022-10-10T12:38:16.023Z,6.63
2022-10-10T12:41:08.498Z,7.50
2022-10-10T12:43:50.737Z,6.28
2022-10-10T12:46:23.237Z,7.05
2022-10-10T12:49:17.932Z,6.82
2022-10-10T12:52:01.129Z,6.07
2022-10-10T12:54:32.933Z,5.25
2022-10-10T12:57:10.757Z,5.40
2022-10-10T12:59:40.058Z,5.95
2022-10-10T13:02:15.948Z,6.03
2022-10-10T13:04:45.721Z,5.38
2022-10-10T13:07:19.267Z,6.57
2022-10-10T13:09:49.638Z,5.63
2022-10-10T13:12:26.876Z,10.23
2022-10-10T13:14:55.836Z,6.47
2022-10-10T13:17:26.873Z,6.00
2022-10-10T13:19:56.334Z,5.57
2022-10-10T13:22:27.356Z,5.30
2022-10-10T13:24:56.215Z,5.15
2022-10-10T13:27:27.455Z,5.30
2022-10-10T13:29:56.655Z,5.25
2022-10-10T13:32:27.771Z,5.18
2022-10-10T13:34:59.138Z,4.55
2022-10-10T13:37:30.313Z,4.93
2022-10-10T13:39:59.379Z,4.85
2022-10-10T13:42:36.743Z,7.03
2022-10-10T13:45:36.375Z,4.57
2022-10-10T13:48:29.211Z,5.80
2022-10-10T13:51:07.323Z,4.60
2022-10-10T13:53:45.359Z,4.68
2022-10-10T13:56:16.165Z,6.30
2022-10-10T13:58:48.272Z,4.68
2022-10-10T14:01:34.504Z,4.07
2022-10-10T14:04:18.978Z,4.47
2022-10-10T14:06:57.734Z,4.10
2022-10-10T14:09:30.631Z,4.47
2022-10-10T14:12:02.364Z,4.75
2022-10-10T14:14:36.149Z,4.53
2022-10-10T14:17:07.355Z,5.30
2022-10-10T14:19:36.428Z,5.05
2022-10-10T14:22:04.950Z,4.75
2022-10-10T14:24:33.291Z,4.60
2022-10-10T14:27:15.459Z,4.55
2022-10-10T14:29:43.895Z,5.10
2022-10-10T14:32:14.549Z,4.95
2022-10-10T14:34:43.195Z,5.20
2022-10-10T14:37:17.785Z,5.40
2022-10-10T14:39:46.550Z,4.82
2022-10-10T14:42:16.928Z,5.40
2022-10-10T14:44:45.274Z,5.10
2022-10-10T14:47:20.242Z,4.97
2022-10-10T14:49:49.240Z,5.10
2022-10-10T14:52:17.780Z,6.88
2022-10-10T14:54:46.163Z,5.50
2022-10-10T14:57:15.189Z,8.50
2022-10-10T14:59:47.543Z,4.60
2022-10-10T15:02:21.278Z,4.28
2022-10-10T15:04:49.966Z,5.57
2022-10-10T15:07:18.935Z,4.47
2022-10-10T15:12:39.465Z,4.85
2022-10-10T15:15:09.206Z,4.50
2022-10-10T15:17:39.281Z,4.43
2022-10-10T15:20:10.214Z,4.38
2022-10-10T15:22:39.021Z,4.93
2022-10-10T15:25:08.993Z,4.50
2022-10-10T15:27:38.364Z,5.60
2022-10-10T15:30:08.206Z,6.50
2022-10-10T15:32:40.837Z,4.82
2022-10-10T15:35:13.691Z,4.47
2022-10-10T15:37:42.223Z,4.45
2022-10-10T15:40:11.691Z,4.57
2022-10-10T15:42:40.074Z,5.13
2022-10-10T15:45:09.552Z,4.40
2022-10-10T15:47:46.303Z,5.53
2022-10-10T15:50:14.987Z,4.80
2022-10-10T15:52:43.312Z,5.07
2022-10-10T15:55:12.108Z,4.63
2022-10-10T15:57:40.612Z,4.35
2022-10-10T16:00:10.894Z,5.18
2022-10-10T16:02:41.033Z,5.50
2022-10-10T16:05:10.369Z,7.35
2022-10-10T16:07:47.696Z,6.88
2022-10-10T16:10:17.328Z,5.80
2022-10-10T16:12:45.934Z,6.90
2022-10-10T16:15:14.797Z,5.80
2022-10-10T16:17:44.800Z,5.53
2022-10-10T16:20:14.368Z,5.75
2022-10-10T16:22:42.920Z,7.30
2022-10-10T16:25:27.318Z,6.85
2022-10-10T16:27:55.728Z,13.75
2022-10-10T16:30:24.132Z,10.27
2022-10-10T16:32:53.901Z,11.75
2022-10-10T16:35:22.113Z,11.05
2022-10-10T16:37:50.403Z,10.90
2022-10-10T16:40:18.988Z,9.25
2022-10-10T16:42:47.454Z,10.80
2022-10-10T16:45:15.822Z,11.43
2022-10-10T16:47:44.196Z,9.10
2022-10-10T16:50:13.937Z,8.95
2022-10-10T16:52:42.364Z,7.80
2022-10-10T16:55:12.266Z,9.40
2022-10-10T16:57:41.077Z,7.85
2022-10-10T17:00:11.383Z,9.52
2022-10-10T17:02:42.339Z,10.80
2022-10-10T17:05:11.126Z,8.52
2022-10-10T17:07:40.952Z,6.88
2022-10-10T17:10:10.261Z,9.43
2022-10-10T17:12:38.762Z,6.68
2022-10-10T17:15:08.902Z,7.93
2022-10-10T17:17:37.935Z,6.90
2022-10-10T17:20:07.897Z,8.52
2022-10-10T17:22:36.444Z,6.70
2022-10-10T17:25:07.217Z,7.93
2022-10-10T17:27:36.114Z,8.35
2022-10-10T17:30:05.579Z,7.13
2022-10-10T17:32:33.968Z,6.65
2022-10-10T17:35:02.374Z,6.50
2022-10-10T17:37:30.707Z,6.35
2022-10-10T17:39:58.975Z,6.70
2022-10-10T17:42:28.926Z,6.40
2022-10-10T17:44:59.486Z,5.63
2022-10-10T17:47:28.151Z,6.60
2022-10-10T17:49:56.518Z,7.03
2022-10-10T17:52:25.433Z,5.95
2022-10-10T17:54:53.796Z,9.48
2022-10-10T17:57:22.225Z,8.63
2022-10-10T17:59:52.044Z,6.10
2022-10-10T18:02:20.774Z,7.40
2022-10-10T18:04:49.133Z,6.60
2022-10-10T18:07:18.826Z,7.20
2022-10-10T18:09:47.900Z,5.75
2022-10-10T18:12:16.209Z,6.55
2022-10-10T18:14:46.257Z,7.05
2022-10-10T18:17:16.018Z,6.28
2022-10-10T18:19:44.391Z,6.30
2022-10-10T18:22:12.730Z,6.22
2022-10-10T18:24:41.220Z,7.07
2022-10-10T18:27:09.551Z,6.53
2022-10-10T18:29:39.741Z,7.45
2022-10-10T18:32:08.242Z,7.65
2022-10-10T18:34:38.357Z,6.65
2022-10-10T18:37:07.258Z,6.32
2022-10-10T18:39:37.485Z,6.20
2022-10-10T18:42:06.122Z,6.85
2022-10-10T18:44:34.405Z,6.35
2022-10-10T18:47:02.778Z,6.25
2022-10-10T18:49:31.166Z,7.45
2022-10-10T18:52:00.907Z,6.80
2022-10-10T18:54:30.550Z,6.60
2022-10-10T18:56:59.013Z,6.70
2022-10-10T18:59:27.399Z,8.13
2022-10-10T19:01:55.800Z,6.15
2022-10-10T19:04:24.192Z,7.57
2022-10-10T19:06:57.031Z,5.90
2022-10-10T19:09:27.980Z,7.18
2022-10-10T19:11:56.274Z,6.22
2022-10-10T19:14:24.592Z,7.15
2022-10-10T19:16:53.073Z,6.43
2022-10-10T19:19:21.719Z,7.95
2022-10-10T19:21:50.409Z,6.78
2022-10-10T19:24:21.525Z,6.50
2022-10-10T19:26:56.993Z,6.55
2022-10-10T19:29:26.666Z,6.57
2022-10-10T19:31:56.045Z,6.32
2022-10-10T19:34:25.064Z,5.85
2022-10-10T19:36:53.632Z,5.80
2022-10-10T19:39:22.004Z,6.10
2022-10-10T19:41:50.565Z,6.35
2022-10-10T19:44:20.217Z,7.00
2022-10-10T19:46:48.821Z,6.40
2022-10-10T19:49:17.193Z,8.07
2022-10-10T19:51:45.454Z,6.15
2022-10-10T19:54:13.713Z,7.45
2022-10-10T19:56:42.059Z,6.07
2022-10-10T19:59:10.619Z,7.78
2022-10-10T20:01:40.440Z,7.05
2022-10-10T20:04:08.805Z,6.43
2022-10-10T20:06:38.069Z,7.68
2022-10-10T20:09:10.585Z,6.97
2022-10-10T20:11:40.419Z,6.75
2022-10-10T20:14:09.283Z,8.98
2022-10-10T20:16:39.648Z,6.60
2022-10-10T20:19:08.868Z,6.63
2022-10-10T20:21:37.269Z,6.45
2022-10-10T20:24:08.989Z,8.73
2022-10-10T20:26:38.092Z,6.35
2022-10-10T20:29:08.060Z,6.47
2022-10-10T20:31:38.581Z,6.97
2022-10-10T20:34:08.745Z,7.10
2022-10-10T20:36:37.382Z,6.95
2022-10-10T20:39:08.023Z,8.60
2022-10-10T20:41:37.786Z,6.43
2022-10-10T20:44:07.753Z,9.20
2022-10-10T20:46:38.902Z,6.68
2022-10-10T20:49:12.652Z,7.43
2022-10-10T20:51:41.138Z,7.93
2022-10-10T20:54:11.748Z,9.38
2022-10-10T20:56:40.985Z,6.43
2022-10-10T20:59:12.569Z,6.95
2022-10-10T21:01:41.876Z,6.82
2022-10-10T21:04:12.415Z,7.03
2022-10-10T21:06:42.783Z,6.43
2022-10-10T21:09:12.634Z,5.75
2022-10-10T21:11:41.484Z,6.88
2022-10-10T21:14:11.982Z,6.25
2022-10-10T21:16:41.718Z,6.78
2022-10-10T21:19:15.885Z,6.55
2022-10-10T21:21:44.506Z,6.70
2022-10-10T21:24:13.311Z,10.02
2022-10-10T21:26:42.643Z,6.63
2022-10-10T21:29:10.996Z,6.50
2022-10-10T21:31:40.574Z,7.28
2022-10-10T21:34:13.357Z,6.95
2022-10-10T21:36:43.052Z,8.57
2022-10-10T21:39:12.961Z,6.97
2022-10-10T21:41:41.808Z,6.70
2022-10-10T21:44:11.880Z,6.72
2022-10-10T21:46:40.214Z,6.93
2022-10-10T21:49:11.698Z,6.80
2022-10-10T21:51:43.007Z,6.63
2022-10-10T21:54:11.860Z,6.85
2022-10-10T21:56:40.684Z,7.45
2022-10-10T21:59:09.787Z,7.05
2022-10-10T22:01:38.386Z,6.68
2022-10-10T22:04:07.385Z,6.53
2022-10-10T22:06:36.084Z,6.70
2022-10-10T22:09:05.980Z,7.03
2022-10-10T22:11:36.495Z,6.70
2022-10-10T22:14:05.300Z,7.60
2022-10-10T22:16:34.615Z,6.97
2022-10-10T22:19:03.634Z,6.97
2022-10-10T22:21:34.761Z,6.25
2022-10-10T22:24:06.420Z,7.60
2022-10-10T22:26:35.317Z,6.60
2022-10-10T22:29:04.255Z,6.47
2022-10-10T22:31:35.641Z,6.88
2022-10-10T22:34:04.275Z,6.38
2022-10-10T22:36:32.896Z,7.05
2022-10-10T22:39:01.611Z,6.55
2022-10-10T22:41:31.656Z,6.38
2022-10-10T22:44:00.434Z,8.90
2022-10-10T22:46:29.323Z,6.78
2022-10-10T22:48:57.798Z,6.95
2022-10-10T22:51:26.337Z,5.90
2022-10-10T22:53:54.798Z,6.18
2022-10-10T22:56:23.267Z,6.95
2022-10-10T22:58:53.322Z,6.60
2022-10-10T23:01:24.054Z,6.28
2022-10-10T23:03:56.100Z,6.30
2022-10-10T23:06:24.781Z,6.05
2022-10-10T23:08:53.497Z,6.95
2022-10-10T23:11:21.821Z,7.28
2022-10-10T23:13:50.088Z,6.20
2022-10-10T23:16:19.810Z,7.65
2022-10-10T23:18:48.207Z,6.32
2022-10-10T23:21:16.662Z,6.63
2022-10-10T23:23:45.083Z,7.28
2022-10-10T23:26:14.106Z,6.88
2022-10-10T23:28:44.920Z,6.28
2022-10-10T23:31:14.484Z,6.40
2022-10-10T23:33:44.481Z,6.93
2022-10-10T23:36:14.865Z,6.22
2022-10-10T23:38:43.986Z,6.53
2022-10-10T23:41:13.411Z,6.72
2022-10-10T23:43:41.742Z,6.45
2022-10-10T23:46:10.086Z,5.93
2022-10-10T23:48:39.096Z,6.68
2022-10-10T23:51:09.178Z,6.18
2022-10-10T23:53:37.696Z,6.10
2022-10-10T23:56:07.023Z,6.18
2022-10-10T23:58:36.070Z,7.20
